createdAt,value
2022-10-18T00:00:16.019Z,96230.60
2022-10-18T00:02:42.591Z,96233.60
2022-10-18T00:05:09.382Z,96235.00
2022-10-18T00:07:35.987Z,96236.60
2022-10-18T00:10:04.591Z,96233.60
2022-10-18T00:12:34.977Z,96234.20
2022-10-18T00:15:02.571Z,96232.00
2022-10-18T00:17:29.586Z,96233.00
2022-10-18T00:19:56.452Z,96236.60
2022-10-18T00:22:23.121Z,96234.60
2022-10-18T00:24:49.831Z,96226.60
2022-10-18T00:27:16.549Z,96223.80
2022-10-18T00:29:43.119Z,96222.00
2022-10-18T00:32:12.113Z,96218.60
2022-10-18T00:34:40.184Z,96218.20
2022-10-18T00:37:07.294Z,96215.40
2022-10-18T00:39:34.414Z,96219.20
2022-10-18T00:42:03.365Z,96224.80
2022-10-18T00:44:29.844Z,96217.40
2022-10-18T00:47:03.284Z,96217.80
2022-10-18T00:49:45.215Z,96218.40
2022-10-18T00:52:21.946Z,96226.00
2022-10-18T00:54:50.725Z,96231.80
2022-10-18T00:57:17.736Z,96226.00
2022-10-18T00:59:46.168Z,96225.20
2022-10-18T01:02:15.320Z,96216.20
2022-10-18T01:04:41.987Z,96212.00
2022-10-18T01:07:34.786Z,96214.40
2022-10-18T01:10:48.575Z,96213.80
2022-10-18T01:13:24.867Z,96212.60
2022-10-18T01:16:31.204Z,96205.00
2022-10-18T01:19:48.059Z,96202.20
2022-10-18T01:22:24.924Z,96206.00
2022-10-18T01:25:24.621Z,96203.00
2022-10-18T01:28:02.972Z,96198.80
2022-10-18T01:30:51.680Z,96195.60
2022-10-18T01:33:43.857Z,96192.60
2022-10-18T01:36:21.545Z,96191.20
2022-10-18T01:38:53.248Z,96198.40
2022-10-18T01:41:22.845Z,96200.60
2022-10-18T01:43:57.651Z,96204.40
2022-10-18T01:46:26.435Z,96206.60
2022-10-18T01:48:54.674Z,96203.60
2022-10-18T01:51:30.758Z,96201.60
2022-10-18T01:53:57.755Z,96202.00
2022-10-18T01:56:43.189Z,96204.00
2022-10-18T01:59:29.317Z,96210.00
2022-10-18T02:02:27.186Z,96209.40
2022-10-18T02:05:25.159Z,96207.20
2022-10-18T02:08:22.091Z,96201.40
2022-10-18T02:11:00.121Z,96199.60
2022-10-18T02:13:48.759Z,96202.00
2022-10-18T02:16:31.248Z,96208.60
2022-10-18T02:19:03.090Z,96212.00
2022-10-18T02:21:30.758Z,96215.00
2022-10-18T02:24:01.062Z,96212.00
2022-10-18T02:26:28.021Z,96212.40
2022-10-18T02:28:55.360Z,96206.40
2022-10-18T02:31:32.240Z,96201.20
2022-10-18T02:34:09.242Z,96203.00
2022-10-18T02:37:09.011Z,96209.00
2022-10-18T02:39:44.636Z,96209.00
2022-10-18T02:42:12.106Z,96207.80
2022-10-18T02:44:39.257Z,96204.20
2022-10-18T02:47:08.123Z,96207.20
2022-10-18T02:49:34.783Z,96206.00
2022-10-18T02:52:01.448Z,96211.80
2022-10-18T02:54:28.070Z,96205.40
2022-10-18T02:56:54.721Z,96209.00
2022-10-18T02:59:21.460Z,96211.40
2022-10-18T03:01:48.091Z,96212.00
2022-10-18T03:04:14.794Z,96210.80
2022-10-18T03:06:41.386Z,96201.00
2022-10-18T03:09:07.935Z,96199.80
2022-10-18T03:11:34.543Z,96202.40
2022-10-18T03:14:01.080Z,96206.40
2022-10-18T03:16:27.713Z,96207.60
2022-10-18T03:18:54.351Z,96209.60
2022-10-18T03:21:20.911Z,96215.20
2022-10-18T03:23:47.451Z,96219.20
2022-10-18T03:26:14.020Z,96221.20
2022-10-18T03:28:40.622Z,96227.80
2022-10-18T03:31:07.225Z,96234.40
2022-10-18T03:33:34.087Z,96232.40
2022-10-18T03:36:00.782Z,96223.20
2022-10-18T03:38:27.512Z,96223.00
2022-10-18T03:40:54.080Z,96228.00
2022-10-18T03:43:20.740Z,96227.40
2022-10-18T03:45:47.417Z,96221.40
2022-10-18T03:48:13.975Z,96218.60
2022-10-18T03:50:40.527Z,96224.00
2022-10-18T03:53:07.094Z,96231.00
2022-10-18T03:55:33.684Z,96231.00
2022-10-18T03:58:00.495Z,96229.00
2022-10-18T04:00:27.058Z,96233.00
2022-10-18T04:02:55.869Z,96238.20
2022-10-18T04:05:31.218Z,96237.00
2022-10-18T04:07:58.513Z,96233.80
2022-10-18T04:10:25.857Z,96235.80
2022-10-18T04:12:52.712Z,96233.40
2022-10-18T04:15:19.788Z,96238.40
2022-10-18T04:17:47.153Z,96239.00
2022-10-18T04:20:14.188Z,96240.60
2022-10-18T04:22:40.878Z,96234.60
2022-10-18T04:25:07.747Z,96233.40
2022-10-18T04:27:34.685Z,96237.60
2022-10-18T04:30:01.601Z,96233.40
2022-10-18T04:32:29.354Z,96240.60
2022-10-18T04:34:56.063Z,96239.20
2022-10-18T04:37:22.692Z,96235.00
2022-10-18T04:39:52.609Z,96234.00
2022-10-18T04:42:21.337Z,96228.80
2022-10-18T04:44:48.010Z,96225.00
2022-10-18T04:47:14.860Z,96230.20
2022-10-18T04:49:41.402Z,96227.60
2022-10-18T04:52:08.103Z,96219.40
2022-10-18T04:54:35.542Z,96215.80
2022-10-18T04:57:02.134Z,96218.40
2022-10-18T04:59:28.721Z,96224.00
2022-10-18T05:01:55.355Z,96220.00
2022-10-18T05:04:22.030Z,96212.80
2022-10-18T05:06:48.677Z,96210.60
2022-10-18T05:09:16.175Z,96215.80
2022-10-18T05:11:42.768Z,96229.40
2022-10-18T05:14:10.339Z,96229.40
2022-10-18T05:16:36.866Z,96230.20
2022-10-18T05:19:05.739Z,96225.60
2022-10-18T05:21:33.078Z,96221.00
2022-10-18T05:23:59.700Z,96216.80
2022-10-18T05:26:26.472Z,96207.00
2022-10-18T05:28:53.076Z,96205.00
2022-10-18T05:31:19.739Z,96202.80
2022-10-18T05:33:46.355Z,96201.20
2022-10-18T05:36:12.924Z,96202.40
2022-10-18T05:38:45.486Z,96195.20
2022-10-18T05:41:12.802Z,96199.60
2022-10-18T05:43:40.680Z,96204.60
2022-10-18T05:46:13.695Z,96204.20
2022-10-18T05:48:43.576Z,96213.60
2022-10-18T05:51:10.261Z,96213.40
2022-10-18T05:53:37.758Z,96212.40
2022-10-18T05:56:07.107Z,96222.20
2022-10-18T05:58:34.739Z,96225.40
2022-10-18T06:01:02.892Z,96222.40
2022-10-18T06:03:30.892Z,96224.00
2022-10-18T06:06:08.841Z,96231.20
2022-10-18T06:08:36.928Z,96238.20
2022-10-18T06:11:11.847Z,96239.00
2022-10-18T06:13:43.448Z,96234.20
2022-10-18T06:16:11.876Z,96230.00
2022-10-18T06:18:39.086Z,96231.40
2022-10-18T06:21:06.732Z,96233.80
2022-10-18T06:23:33.371Z,96230.60
2022-10-18T06:26:07.527Z,96228.60
2022-10-18T06:28:35.887Z,96226.60
2022-10-18T06:31:03.878Z,96222.40
2022-10-18T06:33:32.049Z,96221.60
2022-10-18T06:36:06.351Z,96218.00
2022-10-18T06:38:33.881Z,96212.20
2022-10-18T06:41:00.909Z,96210.20
2022-10-18T06:43:28.031Z,96211.80
2022-10-18T06:45:54.910Z,96222.60
2022-10-18T06:48:22.516Z,96235.80
2022-10-18T06:50:58.292Z,96244.00
2022-10-18T06:53:28.636Z,96242.40
2022-10-18T06:56:08.551Z,96242.00
2022-10-18T06:58:35.541Z,96251.20
2022-10-18T07:01:12.120Z,96255.20
2022-10-18T07:03:39.763Z,96252.20
2022-10-18T07:06:10.183Z,96249.00
2022-10-18T07:08:37.812Z,96248.00
2022-10-18T07:11:06.590Z,96250.00
2022-10-18T07:13:34.359Z,96253.60
2022-10-18T07:16:17.319Z,96254.60
2022-10-18T07:18:51.276Z,96255.20
2022-10-18T07:21:22.208Z,96258.40
2022-10-18T07:23:49.813Z,96259.20
2022-10-18T07:26:25.417Z,96252.00
2022-10-18T07:28:57.871Z,96247.20
2022-10-18T07:31:25.410Z,96246.00
2022-10-18T07:33:53.220Z,96245.00
2022-10-18T07:36:21.319Z,96249.00
2022-10-18T07:38:49.262Z,96254.80
2022-10-18T07:41:15.852Z,96258.20
2022-10-18T07:43:48.850Z,96255.80
2022-10-18T07:46:18.443Z,96256.40
2022-10-18T07:48:45.030Z,96252.80
2022-10-18T07:51:12.164Z,96245.80
2022-10-18T07:53:38.761Z,96247.00
2022-10-18T07:56:16.054Z,96246.00
2022-10-18T07:58:44.630Z,96244.80
2022-10-18T08:01:12.814Z,96245.80
2022-10-18T08:03:40.165Z,96247.40
2022-10-18T08:06:09.720Z,96255.20
2022-10-18T08:08:39.108Z,96255.40
2022-10-18T08:11:09.860Z,96264.20
2022-10-18T08:13:36.876Z,96263.00
2022-10-18T08:16:08.167Z,96260.20
2022-10-18T08:18:36.468Z,96255.80
2022-10-18T08:21:07.825Z,96256.40
2022-10-18T08:23:35.547Z,96257.60
2022-10-18T08:26:05.162Z,96255.00
2022-10-18T08:28:32.023Z,96260.40
2022-10-18T08:31:06.983Z,96264.80
2022-10-18T08:33:35.877Z,96259.80
2022-10-18T08:36:06.005Z,96259.20
2022-10-18T08:38:38.532Z,96259.60
2022-10-18T08:41:38.237Z,96258.80
2022-10-18T08:44:48.278Z,96253.60
2022-10-18T08:47:39.913Z,96249.80
2022-10-18T08:50:23.123Z,96238.80
2022-10-18T08:53:06.460Z,96249.40
2022-10-18T08:55:47.431Z,96243.60
2022-10-18T08:58:27.384Z,96234.40
2022-10-18T09:01:27.965Z,96232.80
2022-10-18T09:04:44.363Z,96235.00
2022-10-18T09:08:02.578Z,96236.40
2022-10-18T09:10:38.409Z,96228.80
2022-10-18T09:13:39.232Z,96234.80
2022-10-18T09:16:11.274Z,96233.80
2022-10-18T09:19:03.160Z,96233.20
2022-10-18T09:21:56.815Z,96234.60
2022-10-18T09:24:51.179Z,96224.60
2022-10-18T09:27:21.018Z,96235.00
2022-10-18T09:30:37.926Z,96231.40
2022-10-18T09:33:38.271Z,96236.80
2022-10-18T09:36:18.995Z,96229.80
2022-10-18T09:38:51.296Z,96233.40
2022-10-18T09:41:45.459Z,96228.80
2022-10-18T09:44:17.446Z,96232.40
2022-10-18T09:46:51.168Z,96232.20
2022-10-18T09:49:30.207Z,96232.80
2022-10-18T09:52:00.334Z,96237.00
2022-10-18T09:54:35.059Z,96229.20
2022-10-18T09:57:05.455Z,96231.80
2022-10-18T09:59:50.772Z,96236.80
2022-10-18T10:02:23.765Z,96238.60
2022-10-18T10:04:51.704Z,96238.40
2022-10-18T10:07:35.139Z,96234.00
2022-10-18T10:10:25.423Z,96232.40
2022-10-18T10:13:22.942Z,96232.40
2022-10-18T10:16:00.875Z,96233.60
2022-10-18T10:18:54.324Z,96233.40
2022-10-18T10:21:22.374Z,96232.20
2022-10-18T10:23:58.164Z,96225.80
2022-10-18T10:26:33.995Z,96222.00
2022-10-18T10:29:01.219Z,96217.60
2022-10-18T10:31:30.813Z,96218.00
2022-10-18T10:34:29.446Z,96217.80
2022-10-18T10:36:56.163Z,96217.20
2022-10-18T10:39:24.801Z,96217.40
2022-10-18T10:41:52.396Z,96219.00
2022-10-18T10:44:29.022Z,96214.40
2022-10-18T10:46:56.440Z,96216.40
2022-10-18T10:49:40.592Z,96218.60
2022-10-18T10:52:27.315Z,96219.20
2022-10-18T10:55:23.301Z,96215.20
2022-10-18T10:57:53.135Z,96207.20
2022-10-18T11:00:42.199Z,96207.20
2022-10-18T11:03:29.167Z,96201.80
2022-10-18T11:06:00.843Z,96194.20
2022-10-18T11:08:36.167Z,96200.00
2022-10-18T11:11:27.908Z,96198.40
2022-10-18T11:14:25.762Z,96194.80
2022-10-18T11:17:25.274Z,96190.80
2022-10-18T11:20:07.306Z,96191.00
2022-10-18T11:22:41.461Z,96184.00
2022-10-18T11:25:16.130Z,96188.40
2022-10-18T11:28:09.569Z,96187.20
2022-10-18T11:30:45.062Z,96192.40
2022-10-18T11:34:06.997Z,96188.80
2022-10-18T11:37:15.820Z,96189.40
2022-10-18T11:39:58.065Z,96186.00
2022-10-18T11:42:53.995Z,96180.20
2022-10-18T11:45:32.579Z,96179.80
2022-10-18T11:48:18.319Z,96183.00
2022-10-18T11:51:08.316Z,96180.20
2022-10-18T11:54:12.213Z,96180.60
2022-10-18T11:56:47.776Z,96176.00
2022-10-18T11:59:50.557Z,96176.00
2022-10-18T12:02:45.468Z,96167.40
2022-10-18T12:05:29.493Z,96157.20
2022-10-18T12:08:16.751Z,96155.60
2022-10-18T12:11:07.959Z,96156.00
2022-10-18T12:13:54.701Z,96157.60
2022-10-18T12:16:45.437Z,96157.60
2022-10-18T12:19:27.828Z,96154.20
2022-10-18T12:21:58.450Z,96147.20
2022-10-18T12:24:28.966Z,96143.60
2022-10-18T12:27:00.774Z,96137.80
2022-10-18T12:29:50.518Z,96139.80
2022-10-18T12:32:27.233Z,96129.80
2022-10-18T12:35:09.440Z,96133.00
2022-10-18T12:37:54.277Z,96130.20
2022-10-18T12:40:44.353Z,96126.80
2022-10-18T12:43:21.956Z,96126.40
2022-10-18T12:45:55.640Z,96118.20
2022-10-18T12:48:39.052Z,96119.60
2022-10-18T12:51:16.276Z,96112.80
2022-10-18T12:53:55.255Z,96114.60
2022-10-18T12:56:27.947Z,96110.40
2022-10-18T12:59:16.331Z,96108.40
2022-10-18T13:01:52.159Z,96112.60
2022-10-18T13:04:27.939Z,96113.60
2022-10-18T13:06:57.322Z,96120.20
2022-10-18T13:09:40.697Z,96118.80
2022-10-18T13:12:10.059Z,96115.80
2022-10-18T13:14:53.394Z,96111.60
2022-10-18T13:17:35.981Z,96111.00
2022-10-18T13:20:25.452Z,96119.20
2022-10-18T13:23:27.734Z,96116.00
2022-10-18T13:26:13.398Z,96122.00
2022-10-18T13:29:14.163Z,96123.80
2022-10-18T13:32:28.738Z,96119.20
2022-10-18T13:34:55.576Z,96123.40
2022-10-18T13:37:25.454Z,96116.80
2022-10-18T13:40:21.516Z,96118.80
2022-10-18T13:42:48.119Z,96115.20
2022-10-18T13:45:40.875Z,96113.20
2022-10-18T13:48:46.630Z,96115.80
2022-10-18T13:51:38.125Z,96111.60
2022-10-18T13:54:39.035Z,96114.80
2022-10-18T13:57:31.397Z,96114.00
2022-10-18T14:00:29.929Z,96118.60
2022-10-18T14:04:02.979Z,96123.80
2022-10-18T14:06:41.586Z,96116.80
2022-10-18T14:09:26.422Z,96120.40
2022-10-18T14:12:25.380Z,96124.20
2022-10-18T14:15:08.023Z,96123.00
2022-10-18T14:17:50.668Z,96120.00
2022-10-18T14:20:30.003Z,96117.40
2022-10-18T14:23:13.020Z,96121.40
2022-10-18T14:25:39.553Z,96115.20
2022-10-18T14:28:12.672Z,96120.40
2022-10-18T14:31:08.317Z,96121.80
2022-10-18T14:33:57.582Z,96120.40
2022-10-18T14:36:31.351Z,96121.80
2022-10-18T14:39:01.782Z,96121.40
2022-10-18T14:41:31.448Z,96119.60
2022-10-18T14:44:17.608Z,96117.00
2022-10-18T14:46:48.572Z,96125.60
2022-10-18T14:49:16.968Z,96121.80
2022-10-18T14:51:47.314Z,96123.20
2022-10-18T14:54:32.265Z,96124.00
2022-10-18T14:57:00.862Z,96118.40
2022-10-18T14:59:31.491Z,96118.40
2022-10-18T15:02:16.766Z,96118.40
2022-10-18T15:04:55.870Z,96120.00
2022-10-18T15:07:22.597Z,96120.20
2022-10-18T15:09:49.284Z,96124.80
2022-10-18T15:12:17.790Z,96129.80
2022-10-18T15:14:45.480Z,96133.00
2022-10-18T15:17:28.318Z,96131.80
2022-10-18T15:20:01.871Z,96129.20
2022-10-18T15:22:33.466Z,96130.60
2022-10-18T15:25:05.915Z,96132.20
2022-10-18T15:27:37.258Z,96133.40
2022-10-18T15:30:11.010Z,96135.80
2022-10-18T15:32:37.836Z,96135.60
2022-10-18T15:35:23.470Z,96135.80
2022-10-18T15:37:54.085Z,96139.60
2022-10-18T15:40:23.682Z,96139.60
2022-10-18T15:42:53.492Z,96142.40
2022-10-18T15:45:32.425Z,96138.00
2022-10-18T15:48:06.457Z,96134.00
2022-10-18T15:50:55.967Z,96127.40
2022-10-18T15:53:43.770Z,96132.80
2022-10-18T15:56:33.482Z,96134.80
2022-10-18T15:59:24.430Z,96133.20
2022-10-18T16:01:51.348Z,96130.80
2022-10-18T16:04:36.869Z,96134.80
2022-10-18T16:07:03.429Z,96132.80
2022-10-18T16:09:30.037Z,96138.20
2022-10-18T16:11:58.227Z,96148.20
2022-10-18T16:14:26.573Z,96155.60
2022-10-18T16:17:02.362Z,96148.60
2022-10-18T16:19:29.488Z,96150.80
2022-10-18T16:21:56.593Z,96162.40
2022-10-18T16:24:23.508Z,96166.80
2022-10-18T16:26:51.067Z,96169.20
2022-10-18T16:29:28.805Z,96169.40
2022-10-18T16:31:58.254Z,96174.00
2022-10-18T16:34:29.433Z,96174.60
2022-10-18T16:36:56.083Z,96181.00
2022-10-18T16:39:23.370Z,96178.40
2022-10-18T16:41:51.327Z,96181.00
2022-10-18T16:44:19.211Z,96182.20
2022-10-18T16:46:48.195Z,96189.60
2022-10-18T16:49:23.682Z,96193.00
2022-10-18T16:51:52.758Z,96194.80
2022-10-18T16:54:19.467Z,96201.80
2022-10-18T16:56:47.747Z,96201.20
2022-10-18T16:59:28.798Z,96202.00
2022-10-18T17:01:55.702Z,96206.00
2022-10-18T17:04:22.327Z,96206.60
2022-10-18T17:06:49.564Z,96206.60
2022-10-18T17:09:16.355Z,96203.20
2022-10-18T17:11:42.980Z,96209.00
2022-10-18T17:14:09.532Z,96208.20
2022-10-18T17:16:38.874Z,96207.00
2022-10-18T17:19:07.981Z,96211.40
2022-10-18T17:21:35.330Z,96209.00
2022-10-18T17:24:03.290Z,96213.80
2022-10-18T17:26:30.557Z,96216.60
2022-10-18T17:29:06.976Z,96219.20
2022-10-18T17:31:35.626Z,96217.40
2022-10-18T17:34:02.899Z,96213.80
2022-10-18T17:36:31.733Z,96215.80
2022-10-18T17:38:58.520Z,96220.60
2022-10-18T17:41:25.461Z,96218.80
2022-10-18T17:43:52.015Z,96233.20
2022-10-18T17:46:19.550Z,96236.80
2022-10-18T17:48:46.735Z,96244.20
2022-10-18T17:51:16.915Z,96251.80
2022-10-18T17:53:44.326Z,96252.20
2022-10-18T17:56:12.315Z,96252.20
2022-10-18T17:58:39.400Z,96249.00
2022-10-18T18:01:17.285Z,96254.00
2022-10-18T18:03:44.073Z,96252.40
2022-10-18T18:06:21.464Z,96254.40
2022-10-18T18:08:49.479Z,96252.60
2022-10-18T18:11:17.787Z,96254.60
2022-10-18T18:13:44.485Z,96256.00
2022-10-18T18:16:18.523Z,96254.40
2022-10-18T18:18:45.840Z,96249.60
2022-10-18T18:21:13.470Z,96253.60
2022-10-18T18:23:40.306Z,96254.40
2022-10-18T18:26:07.365Z,96253.40
2022-10-18T18:28:36.255Z,96254.20
2022-10-18T18:31:15.639Z,96252.40
2022-10-18T18:33:43.214Z,96251.00
2022-10-18T18:36:11.170Z,96251.80
2022-10-18T18:38:42.586Z,96249.80
2022-10-18T18:41:16.332Z,96253.60
2022-10-18T18:43:52.264Z,96251.60
2022-10-18T18:46:18.991Z,96252.40
2022-10-18T18:48:45.598Z,96250.60
2022-10-18T18:51:16.092Z,96255.60
2022-10-18T18:53:44.701Z,96257.00
2022-10-18T18:56:18.523Z,96258.00
2022-10-18T18:58:46.775Z,96260.80
2022-10-18T19:01:19.966Z,96263.00
2022-10-18T19:03:49.883Z,96264.20
2022-10-18T19:06:21.455Z,96261.20
2022-10-18T19:08:48.887Z,96257.60
2022-10-18T19:11:21.904Z,96255.80
2022-10-18T19:13:50.180Z,96255.20
2022-10-18T19:16:25.712Z,96260.60
2022-10-18T19:18:54.107Z,96261.80
2022-10-18T19:21:22.571Z,96261.60
2022-10-18T19:23:50.373Z,96257.00
2022-10-18T19:26:32.281Z,96254.80
2022-10-18T19:29:08.187Z,96252.80
2022-10-18T19:31:35.404Z,96247.60
2022-10-18T19:34:07.710Z,96248.40
2022-10-18T19:36:35.453Z,96247.80
2022-10-18T19:39:03.511Z,96247.60
2022-10-18T19:41:30.137Z,96249.80
2022-10-18T19:43:57.590Z,96252.00
2022-10-18T19:46:25.202Z,96254.40
2022-10-18T19:48:54.018Z,96250.40
2022-10-18T19:51:24.038Z,96249.40
2022-10-18T19:53:52.680Z,96249.20
2022-10-18T19:56:23.136Z,96250.60
2022-10-18T19:58:50.641Z,96255.00
2022-10-18T20:01:18.662Z,96254.80
2022-10-18T20:03:46.144Z,96250.00
2022-10-18T20:06:13.643Z,96256.60
2022-10-18T20:08:40.513Z,96255.80
2022-10-18T20:11:12.269Z,96258.00
2022-10-18T20:13:39.582Z,96260.20
2022-10-18T20:16:08.984Z,96262.40
2022-10-18T20:18:36.640Z,96267.00
2022-10-18T20:21:08.527Z,96268.60
2022-10-18T20:23:37.503Z,96268.80
2022-10-18T20:26:07.116Z,96274.00
2022-10-18T20:28:34.935Z,96274.80
2022-10-18T20:31:12.887Z,96272.00
2022-10-18T20:33:40.131Z,96274.60
2022-10-18T20:36:16.291Z,96278.80
2022-10-18T20:38:45.752Z,96275.60
2022-10-18T20:41:20.183Z,96274.80
2022-10-18T20:44:07.058Z,96273.40
2022-10-18T20:46:36.757Z,96274.40
2022-10-18T20:49:05.770Z,96273.00
2022-10-18T20:51:33.766Z,96268.80
2022-10-18T20:56:34.141Z,96269.60
2022-10-18T20:59:01.658Z,96264.60
2022-10-18T21:01:31.469Z,96265.00
2022-10-18T21:04:01.618Z,96265.60
2022-10-18T21:06:34.596Z,96273.00
2022-10-18T21:09:11.602Z,96270.20
2022-10-18T21:11:41.243Z,96265.20
2022-10-18T21:14:13.336Z,96263.60
2022-10-18T21:16:39.972Z,96262.60
2022-10-18T21:19:19.537Z,96261.40
2022-10-18T21:21:52.586Z,96258.20
2022-10-18T21:24:21.828Z,96254.40
2022-10-18T21:26:49.330Z,96256.20
2022-10-18T21:29:21.656Z,96255.80
2022-10-18T21:31:49.497Z,96252.80
2022-10-18T21:34:17.480Z,96256.00
2022-10-18T21:36:47.977Z,96251.60
2022-10-18T21:39:21.720Z,96248.00
2022-10-18T21:41:49.451Z,96248.80
2022-10-18T21:44:16.703Z,96247.00
2022-10-18T21:46:43.700Z,96246.40
2022-10-18T21:49:11.444Z,96242.60
2022-10-18T21:51:38.598Z,96243.00
2022-10-18T21:54:12.017Z,96242.20
2022-10-18T21:56:38.672Z,96242.40
2022-10-18T21:59:05.721Z,96237.20
2022-10-18T22:01:36.297Z,96239.80
2022-10-18T22:04:07.850Z,96238.00
2022-10-18T22:06:36.561Z,96237.00
2022-10-18T22:09:08.076Z,96238.40
2022-10-18T22:11:40.648Z,96239.60
2022-10-18T22:14:07.664Z,96243.80
2022-10-18T22:16:34.357Z,96240.60
2022-10-18T22:19:04.483Z,96239.80
2022-10-18T22:21:31.669Z,96234.00
2022-10-18T22:23:59.568Z,96233.40
2022-10-18T22:26:32.055Z,96230.00
2022-10-18T22:29:19.237Z,96231.20
2022-10-18T22:31:52.149Z,96224.40
2022-10-18T22:34:28.822Z,96224.80
2022-10-18T22:36:55.698Z,96219.60
2022-10-18T22:39:22.350Z,96224.80
2022-10-18T22:41:54.159Z,96228.80
2022-10-18T22:44:20.711Z,96222.00
2022-10-18T22:46:47.310Z,96222.40
2022-10-18T22:49:14.041Z,96219.00
2022-10-18T22:51:40.759Z,96215.00
2022-10-18T22:54:07.742Z,96210.60
2022-10-18T22:56:34.408Z,96210.60
2022-10-18T22:59:01.011Z,96212.20
2022-10-18T23:01:27.600Z,96211.00
2022-10-18T23:03:58.920Z,96209.00
2022-10-18T23:06:33.518Z,96209.80
2022-10-18T23:09:05.098Z,96212.00
2022-10-18T23:11:33.562Z,96211.60
2022-10-18T23:14:03.195Z,96209.80
2022-10-18T23:16:30.028Z,96209.80
2022-10-18T23:18:58.143Z,96207.60
2022-10-18T23:21:28.009Z,96203.80
2022-10-18T23:23:56.755Z,96202.60
2022-10-18T23:26:27.197Z,96198.40
2022-10-18T23:28:54.433Z,96201.20
2022-10-18T23:31:27.087Z,96197.80
2022-10-18T23:33:56.976Z,96200.00
2022-10-18T23:36:24.727Z,96196.80
2022-10-18T23:38:51.466Z,96193.20
2022-10-18T23:41:19.535Z,96193.80
2022-10-18T23:43:46.714Z,96190.80
2022-10-18T23:46:16.106Z,96185.60
2022-10-18T23:48:42.827Z,96189.00
2022-10-18T23:51:10.028Z,96189.60
2022-10-18T23:53:37.733Z,96188.20
2022-10-18T23:56:08.271Z,96189.40
2022-10-18T23:58:37.324Z,96187.00
